Time;durP1;ratioP1;P1;durP2;ratioP2;P2;SDS_P1;SDS_P2;PMS_P1;PMS_P2;Temp;Humidity;BMP_temperature;BMP_pressure;BME280_temperature;BME280_humidity;BME280_pressure;Samples;Min_cycle;Max_cycle;Signal;HPM_P1;HPM_P2
2022/07/10 00:01:06;;;;;;;2.50;2.30;;;26.80;57.80;;;;;;4932955;29;20463;-67
2022/07/10 00:03:35;;;;;;;2.20;2.00;;;26.80;57.80;;;;;;4932351;29;20851;-67
2022/07/10 00:06:07;;;;;;;2.43;2.17;;;26.80;57.70;;;;;;4925225;29;20962;-68
2022/07/10 00:08:35;;;;;;;4.73;2.80;;;26.80;57.80;;;;;;4914701;29;20444;-68
2022/07/10 00:11:07;;;;;;;2.27;2.07;;;26.80;57.70;;;;;;4928345;29;21002;-67
2022/07/10 00:13:36;;;;;;;4.17;2.77;;;26.80;57.80;;;;;;4933040;29;20460;-68
2022/07/10 00:16:08;;;;;;;4.20;2.10;;;26.80;57.90;;;;;;4924962;29;20926;-67
2022/07/10 00:18:36;;;;;;;2.60;2.40;;;26.80;57.70;;;;;;4930354;29;20604;-68
2022/07/10 00:21:08;;;;;;;3.00;2.37;;;26.80;57.70;;;;;;4924659;29;20981;-68
2022/07/10 00:23:36;;;;;;;3.80;2.20;;;26.80;57.80;;;;;;4936546;29;21023;-67
2022/07/10 00:26:07;;;;;;;2.97;2.17;;;26.80;57.80;;;;;;4937434;29;20459;-67
2022/07/10 00:28:37;;;;;;;2.47;2.20;;;26.80;57.90;;;;;;4925388;29;20516;-68
2022/07/10 00:31:06;;;;;;;2.57;2.30;;;26.80;58.00;;;;;;4919061;29;20897;-67
2022/07/10 00:33:34;;;;;;;4.00;2.47;;;26.70;57.90;;;;;;4903674;29;20464;-68
2022/07/10 00:36:06;;;;;;;2.77;2.57;;;26.80;57.80;;;;;;4928542;29;20930;-68
2022/07/10 00:38:34;;;;;;;2.67;1.93;;;26.70;57.80;;;;;;4934956;29;20495;-68
2022/07/10 00:41:05;;;;;;;2.83;2.20;;;26.70;58.00;;;;;;4934610;29;20933;-68
2022/07/10 00:43:52;;;;;;;2.67;2.00;;;26.70;58.00;;;;;;4936993;29;20455;-68
2022/07/10 00:46:21;;;;;;;2.50;2.30;;;26.70;58.00;;;;;;4936958;29;20534;-68
2022/07/10 00:48:49;;;;;;;2.50;2.30;;;26.70;58.00;;;;;;4937704;29;20442;-67
2022/07/10 00:51:19;;;;;;;2.30;2.10;;;26.70;57.90;;;;;;4936791;29;20483;-67
2022/07/10 00:53:48;;;;;;;2.37;2.17;;;26.70;58.00;;;;;;4936310;29;20448;-68
2022/07/10 00:56:19;;;;;;;3.33;2.10;;;26.70;58.00;;;;;;4936029;29;20455;-68
2022/07/10 00:58:49;;;;;;;2.13;1.93;;;26.70;58.00;;;;;;4936750;29;20483;-68
2022/07/10 01:01:26;;;;;;;2.17;1.97;;;26.70;58.00;;;;;;4935740;29;20468;-68
2022/07/10 01:03:55;;;;;;;2.30;1.83;;;26.70;58.10;;;;;;4923764;29;20464;-68
2022/07/10 01:06:23;;;;;;;2.83;1.93;;;26.70;58.00;;;;;;4926909;29;20458;-67
2022/07/10 01:08:51;;;;;;;2.30;2.10;;;26.70;57.90;;;;;;4933841;29;20542;-68
2022/07/10 01:11:19;;;;;;;2.40;2.20;;;26.70;57.90;;;;;;4934682;29;20559;-67
2022/07/10 01:13:49;;;;;;;2.17;1.80;;;26.70;58.00;;;;;;4935163;29;20773;-68
2022/07/10 01:16:18;;;;;;;2.00;1.80;;;26.60;58.10;;;;;;4934849;29;21377;-68
2022/07/10 01:18:47;;;;;;;2.53;2.27;;;26.60;58.10;;;;;;4936332;29;20460;-68
2022/07/10 01:21:26;;;;;;;2.90;2.13;;;26.60;58.00;;;;;;4933187;29;20552;-68
2022/07/10 01:23:54;;;;;;;3.07;2.40;;;26.60;58.00;;;;;;4935004;29;20529;-67
2022/07/10 01:26:23;;;;;;;2.60;2.00;;;26.60;58.00;;;;;;4935063;29;20443;-67
2022/07/10 01:28:53;;;;;;;2.00;1.80;;;26.60;58.10;;;;;;4934802;29;20471;-67
2022/07/10 01:31:25;;;;;;;2.33;1.70;;;26.60;58.10;;;;;;4931427;29;20460;-67
2022/07/10 01:33:54;;;;;;;2.87;2.10;;;26.60;58.10;;;;;;4930470;29;20463;-68
2022/07/10 01:36:22;;;;;;;2.50;2.30;;;26.60;58.30;;;;;;4935279;29;20446;-68
2022/07/10 01:38:54;;;;;;;2.90;1.90;;;26.60;58.10;;;;;;4935506;29;20473;-67
2022/07/10 01:41:24;;;;;;;2.33;1.90;;;26.60;58.10;;;;;;4933599;29;20537;-68
2022/07/10 01:43:53;;;;;;;2.03;1.90;;;26.60;58.10;;;;;;4934237;29;20489;-68
2022/07/10 01:46:21;;;;;;;2.23;2.00;;;26.60;58.20;;;;;;4935104;29;20475;-67
2022/07/10 01:48:49;;;;;;;2.43;1.63;;;26.60;58.20;;;;;;4933185;29;20969;-67
2022/07/10 01:51:18;;;;;;;2.57;2.27;;;26.60;58.20;;;;;;4934857;29;20529;-67
2022/07/10 01:53:46;;;;;;;2.37;1.90;;;26.60;58.20;;;;;;4934589;29;20499;-67
2022/07/10 01:56:16;;;;;;;2.27;2.07;;;26.60;58.20;;;;;;4934821;29;21025;-67
2022/07/10 01:58:44;;;;;;;2.33;1.83;;;26.60;58.20;;;;;;4935340;29;20471;-67
2022/07/10 02:01:13;;;;;;;2.20;2.00;;;26.60;58.20;;;;;;4935504;29;20486;-67
2022/07/10 02:06:27;;;;;;;2.33;1.73;;;26.60;58.20;;;;;;4918237;29;20452;-68
2022/07/10 02:08:55;;;;;;;2.20;2.00;;;26.60;58.20;;;;;;4928899;29;20564;-68
2022/07/10 02:11:24;;;;;;;2.50;2.20;;;26.50;58.20;;;;;;4932140;29;20494;-67
2022/07/10 02:13:52;;;;;;;1.73;1.63;;;26.50;58.20;;;;;;4934984;29;20539;-67
2022/07/10 02:16:21;;;;;;;2.40;2.20;;;26.50;58.20;;;;;;4935343;29;20562;-68
2022/07/10 02:18:49;;;;;;;2.30;1.63;;;26.50;58.30;;;;;;4915313;29;20490;-67
2022/07/10 02:21:17;;;;;;;2.13;1.93;;;26.50;58.40;;;;;;4933571;29;20502;-68
2022/07/10 02:23:45;;;;;;;1.90;1.70;;;26.50;58.30;;;;;;4933923;29;20524;-68
2022/07/10 02:26:13;;;;;;;1.40;1.30;;;26.50;58.30;;;;;;4932975;29;20467;-67
2022/07/10 02:28:43;;;;;;;2.20;2.00;;;26.50;58.40;;;;;;4935207;29;20455;-68
2022/07/10 02:31:11;;;;;;;2.17;1.97;;;26.50;58.30;;;;;;4934482;29;20498;-67
2022/07/10 02:33:40;;;;;;;2.30;2.10;;;26.50;58.30;;;;;;4932370;29;20550;-68
2022/07/10 02:36:08;;;;;;;1.70;1.60;;;26.50;58.40;;;;;;4925703;29;20920;-67
2022/07/10 02:38:36;;;;;;;1.83;1.73;;;26.40;58.40;;;;;;4933875;29;20546;-67
2022/07/10 02:41:08;;;;;;;2.03;1.87;;;26.50;58.40;;;;;;4934143;29;20452;-68
2022/07/10 02:43:36;;;;;;;1.90;1.70;;;26.40;58.50;;;;;;4934362;29;20969;-67
2022/07/10 02:46:08;;;;;;;2.63;2.43;;;26.40;58.60;;;;;;4933359;29;20448;-68
2022/07/10 02:48:36;;;;;;;1.93;1.80;;;26.40;58.50;;;;;;4928045;29;20481;-67
2022/07/10 02:51:08;;;;;;;1.90;1.77;;;26.40;58.50;;;;;;4931673;29;20484;-68
2022/07/10 02:53:37;;;;;;;2.27;2.07;;;26.40;58.50;;;;;;4931534;29;20521;-68
2022/07/10 02:56:05;;;;;;;2.13;1.90;;;26.40;58.50;;;;;;4933329;29;21029;-68
2022/07/10 02:58:34;;;;;;;2.20;1.70;;;26.40;58.50;;;;;;4935317;29;20883;-67
2022/07/10 03:01:06;;;;;;;2.00;1.70;;;26.40;58.50;;;;;;4934876;29;20448;-68
2022/07/10 03:03:36;;;;;;;2.37;1.80;;;26.40;58.50;;;;;;4930135;29;20491;-68
2022/07/10 03:06:07;;;;;;;1.87;1.67;;;26.40;58.60;;;;;;4935421;29;20508;-68
2022/07/10 03:08:35;;;;;;;1.80;1.70;;;26.30;58.60;;;;;;4933007;29;21209;-68
2022/07/10 03:11:07;;;;;;;1.83;1.70;;;26.30;58.60;;;;;;4934940;29;20461;-67
2022/07/10 03:13:35;;;;;;;2.10;1.80;;;26.30;58.60;;;;;;4934805;29;20490;-68
2022/07/10 03:16:06;;;;;;;2.30;2.10;;;26.30;58.60;;;;;;4934601;29;21303;-68
2022/07/10 03:18:36;;;;;;;1.97;1.60;;;26.30;58.60;;;;;;4917639;29;20461;-68
2022/07/10 03:21:08;;;;;;;2.07;1.87;;;26.30;58.60;;;;;;4929832;29;20482;-67
2022/07/10 03:23:36;;;;;;;1.53;1.43;;;26.30;58.70;;;;;;4919571;29;20492;-68
2022/07/10 03:26:08;;;;;;;2.10;1.80;;;26.30;58.70;;;;;;4931698;29;20491;-68
2022/07/10 03:28:36;;;;;;;1.90;1.80;;;26.30;58.70;;;;;;4934561;29;20452;-68
2022/07/10 03:31:07;;;;;;;2.63;2.43;;;26.30;58.70;;;;;;4934688;29;20900;-67
2022/07/10 03:33:38;;;;;;;2.00;1.80;;;26.30;58.80;;;;;;4927386;29;20482;-68
2022/07/10 03:36:06;;;;;;;2.53;2.10;;;26.30;58.80;;;;;;4934242;29;20449;-67
2022/07/10 03:38:35;;;;;;;1.87;1.77;;;26.30;58.80;;;;;;4934061;29;20513;-68
2022/07/10 03:41:06;;;;;;;2.20;2.00;;;26.30;58.80;;;;;;4934291;29;20483;-67
2022/07/10 03:43:35;;;;;;;1.60;1.43;;;26.30;58.80;;;;;;4932478;29;20529;-68
2022/07/10 03:46:05;;;;;;;1.63;1.50;;;26.20;58.90;;;;;;4934064;29;20447;-67
2022/07/10 03:48:34;;;;;;;2.80;1.57;;;26.20;58.80;;;;;;4934163;29;21341;-67
2022/07/10 03:51:06;;;;;;;2.30;2.10;;;26.20;58.80;;;;;;4934137;29;20556;-67
2022/07/10 03:53:36;;;;;;;1.87;1.67;;;26.20;58.90;;;;;;4933540;29;20499;-67
2022/07/10 03:56:07;;;;;;;2.60;1.67;;;26.20;58.80;;;;;;4933417;29;20468;-68
2022/07/10 03:58:35;;;;;;;1.53;1.43;;;26.20;58.80;;;;;;4932376;29;20522;-68
2022/07/10 04:01:05;;;;;;;1.60;1.50;;;26.20;58.90;;;;;;4929431;29;21590;-68
2022/07/10 04:03:34;;;;;;;1.60;1.50;;;26.20;58.90;;;;;;4932866;29;20528;-68
2022/07/10 04:06:06;;;;;;;2.70;2.00;;;26.20;58.90;;;;;;4933569;29;20963;-68
2022/07/10 04:08:34;;;;;;;1.67;1.57;;;26.20;58.80;;;;;;4933266;29;20471;-68
2022/07/10 04:11:05;;;;;;;1.77;1.67;;;26.20;58.80;;;;;;4933338;29;20457;-67
2022/07/10 04:13:34;;;;;;;1.87;1.73;;;26.20;58.80;;;;;;4932716;29;20567;-68
2022/07/10 04:16:07;;;;;;;2.43;1.73;;;26.20;58.80;;;;;;4931706;29;20510;-68
2022/07/10 04:18:37;;;;;;;2.10;1.90;;;26.20;58.80;;;;;;4929303;29;21100;-68
2022/07/10 04:21:07;;;;;;;2.07;1.60;;;26.20;58.90;;;;;;4932416;29;20467;-67
2022/07/10 04:23:36;;;;;;;2.13;1.93;;;26.20;58.80;;;;;;4932660;29;20920;-67
2022/07/10 04:26:07;;;;;;;2.10;1.90;;;26.20;58.90;;;;;;4932230;29;20469;-68
2022/07/10 04:28:35;;;;;;;1.80;1.70;;;26.20;58.90;;;;;;4930740;29;20497;-68
2022/07/10 04:31:07;;;;;;;1.50;1.40;;;26.20;58.80;;;;;;4928652;29;20461;-67
2022/07/10 04:33:35;;;;;;;1.70;1.60;;;26.20;58.80;;;;;;4931650;29;20773;-67
2022/07/10 04:36:08;;;;;;;1.77;1.60;;;26.20;58.80;;;;;;4929430;29;20470;-68
2022/07/10 04:38:36;;;;;;;1.30;1.20;;;26.20;58.80;;;;;;4933389;29;20515;-68
2022/07/10 04:41:08;;;;;;;2.07;1.60;;;26.20;58.80;;;;;;4931725;29;20463;-67
2022/07/10 04:43:36;;;;;;;1.70;1.60;;;26.20;58.80;;;;;;4930409;29;20455;-67
2022/07/10 04:46:08;;;;;;;2.60;1.60;;;26.20;58.70;;;;;;4933066;29;20521;-67
2022/07/10 04:48:36;;;;;;;1.60;1.50;;;26.20;58.80;;;;;;4927019;29;20889;-68
2022/07/10 04:51:05;;;;;;;1.50;1.40;;;26.20;58.70;;;;;;4932809;29;20541;-67
2022/07/10 04:53:35;;;;;;;1.47;1.37;;;26.20;58.80;;;;;;4933919;29;20516;-68
2022/07/10 04:56:06;;;;;;;1.87;1.77;;;26.20;58.70;;;;;;4933293;29;20517;-67
2022/07/10 04:58:35;;;;;;;1.90;1.60;;;26.30;58.70;;;;;;4924313;29;20855;-67
2022/07/10 05:01:07;;;;;;;2.17;1.70;;;26.30;58.80;;;;;;4924954;29;20538;-67
2022/07/10 05:03:35;;;;;;;1.77;1.57;;;26.30;58.70;;;;;;4928945;29;22444;-67
2022/07/10 05:06:06;;;;;;;3.47;1.60;;;26.30;58.70;;;;;;4932453;29;20481;-67
2022/07/10 05:08:36;;;;;;;1.50;1.33;;;26.30;58.80;;;;;;4932107;29;20551;-67
2022/07/10 05:11:07;;;;;;;1.67;1.57;;;26.30;58.70;;;;;;4933320;29;20454;-67
2022/07/10 05:13:36;;;;;;;1.63;1.53;;;26.30;58.70;;;;;;4934049;29;20559;-67
2022/07/10 05:16:08;;;;;;;1.93;1.70;;;26.30;58.70;;;;;;4936218;29;20453;-67
2022/07/10 05:18:36;;;;;;;1.90;1.70;;;26.30;58.70;;;;;;4933397;29;20481;-67
2022/07/10 05:21:08;;;;;;;2.10;1.60;;;26.30;58.70;;;;;;4934534;29;20544;-68
2022/07/10 05:23:39;;;;;;;1.70;1.50;;;26.30;58.70;;;;;;4933929;29;20563;-67
2022/07/10 05:26:07;;;;;;;1.70;1.33;;;26.30;58.70;;;;;;4931551;29;20490;-67
2022/07/10 05:28:36;;;;;;;1.50;1.33;;;26.30;58.70;;;;;;4935353;29;20509;-67
2022/07/10 05:31:07;;;;;;;1.60;1.50;;;26.30;58.70;;;;;;4934570;29;20497;-67
2022/07/10 05:33:38;;;;;;;1.97;1.80;;;26.30;58.70;;;;;;4931424;29;20515;-67
2022/07/10 05:36:07;;;;;;;2.20;1.83;;;26.30;58.70;;;;;;4936499;29;20467;-67
2022/07/10 05:38:36;;;;;;;1.43;1.27;;;26.30;58.60;;;;;;4933526;29;20501;-67
2022/07/10 05:41:08;;;;;;;1.70;1.60;;;26.30;58.60;;;;;;4935262;29;20475;-67
2022/07/10 05:43:37;;;;;;;1.77;1.63;;;26.30;58.60;;;;;;4936767;29;20459;-67
2022/07/10 05:46:05;;;;;;;1.70;1.40;;;26.30;58.60;;;;;;4935952;29;20503;-67
2022/07/10 05:48:34;;;;;;;1.60;1.50;;;26.40;58.60;;;;;;4935901;29;20505;-67
2022/07/10 05:51:06;;;;;;;1.60;1.50;;;26.40;58.50;;;;;;4935653;29;20568;-67
2022/07/10 05:53:55;;;;;;;1.70;1.57;;;26.40;58.50;;;;;;4936095;29;20446;-67
2022/07/10 05:56:24;;;;;;;1.73;1.63;;;26.40;58.50;;;;;;4931184;29;20455;-67
2022/07/10 05:58:55;;;;;;;1.43;1.33;;;26.40;58.50;;;;;;4933774;29;20873;-67
2022/07/10 06:01:23;;;;;;;2.00;1.80;;;26.40;58.50;;;;;;4933831;29;20506;-67
2022/07/10 06:03:52;;;;;;;1.77;1.67;;;26.40;58.50;;;;;;4927911;29;20471;-67
2022/07/10 06:06:20;;;;;;;1.60;1.50;;;26.40;58.50;;;;;;4934703;29;20476;-67
2022/07/10 06:08:48;;;;;;;1.63;1.53;;;26.40;58.50;;;;;;4932821;29;20882;-67
2022/07/10 06:11:21;;;;;;;1.50;1.40;;;26.40;58.50;;;;;;4930415;29;20868;-67
2022/07/10 06:13:49;;;;;;;1.70;1.60;;;26.40;58.60;;;;;;4917197;29;20452;-67
2022/07/10 06:16:17;;;;;;;1.70;1.40;;;26.40;58.50;;;;;;4929310;29;20545;-67
2022/07/10 06:18:46;;;;;;;1.87;1.77;;;26.40;58.60;;;;;;4932287;29;20956;-67
2022/07/10 06:21:14;;;;;;;1.77;1.67;;;26.40;58.60;;;;;;4931512;29;21118;-67
2022/07/10 06:23:43;;;;;;;1.33;1.23;;;26.40;58.60;;;;;;4929828;29;20945;-67
2022/07/10 06:26:11;;;;;;;2.03;1.50;;;26.40;58.50;;;;;;4933825;29;20973;-67
2022/07/10 06:28:41;;;;;;;1.67;1.50;;;26.40;58.50;;;;;;4933111;29;20458;-67
2022/07/10 06:31:10;;;;;;;2.30;2.10;;;26.40;58.50;;;;;;4933002;29;20466;-67
2022/07/10 06:33:38;;;;;;;2.10;1.90;;;26.40;58.70;;;;;;4933601;29;20983;-67
2022/07/10 06:36:07;;;;;;;2.07;1.87;;;26.40;58.60;;;;;;4934804;29;20514;-68
2022/07/10 06:38:35;;;;;;;1.90;1.80;;;26.40;58.50;;;;;;4933916;29;21255;-67
2022/07/10 06:41:07;;;;;;;1.50;1.33;;;26.40;58.60;;;;;;4931278;29;20544;-67
2022/07/10 06:43:35;;;;;;;1.63;1.53;;;26.40;58.60;;;;;;4931239;29;20452;-67
2022/07/10 06:46:08;;;;;;;2.00;1.60;;;26.40;58.60;;;;;;4932200;29;20508;-67
2022/07/10 06:48:39;;;;;;;1.93;1.60;;;26.40;58.50;;;;;;4929834;29;20463;-67
2022/07/10 06:51:08;;;;;;;1.50;1.40;;;26.50;58.60;;;;;;4930821;29;20512;-67
2022/07/10 06:53:45;;;;;;;1.60;1.50;;;26.40;58.40;;;;;;4929029;29;20458;-67
2022/07/10 06:56:15;;;;;;;1.90;1.80;;;26.50;58.50;;;;;;4930121;29;20476;-68
2022/07/10 06:58:43;;;;;;;1.47;1.37;;;26.40;58.60;;;;;;4928363;29;20509;-67
2022/07/10 07:01:13;;;;;;;1.77;1.40;;;26.50;58.50;;;;;;4926428;29;20534;-67
2022/07/10 07:03:41;;;;;;;1.67;1.57;;;26.40;58.50;;;;;;4923309;29;20575;-68
2022/07/10 07:06:10;;;;;;;3.13;1.90;;;26.40;58.50;;;;;;4925194;29;20879;-67
2022/07/10 07:08:38;;;;;;;1.30;1.20;;;26.40;58.50;;;;;;4920455;29;20862;-68
2022/07/10 07:11:07;;;;;;;1.73;1.63;;;26.40;58.40;;;;;;4927745;29;20566;-67
2022/07/10 07:13:35;;;;;;;1.60;1.50;;;26.40;58.40;;;;;;4924504;29;20993;-67
2022/07/10 07:16:09;;;;;;;1.67;1.43;;;26.40;58.40;;;;;;4924294;29;21009;-68
2022/07/10 07:18:47;;;;;;;1.50;1.40;;;26.50;58.30;;;;;;4924919;29;20469;-68
2022/07/10 07:24:01;;;;;;;1.60;1.50;;;26.50;58.30;;;;;;4927656;29;20614;-68
2022/07/10 07:26:29;;;;;;;1.63;1.53;;;26.50;58.30;;;;;;4922238;29;20495;-68
2022/07/10 07:28:57;;;;;;;2.10;1.47;;;26.50;58.40;;;;;;4929712;29;20451;-68
2022/07/10 07:31:25;;;;;;;1.93;1.73;;;26.50;58.30;;;;;;4929592;29;20459;-68
2022/07/10 07:33:55;;;;;;;1.60;1.50;;;26.50;58.30;;;;;;4932812;29;20518;-69
2022/07/10 07:36:23;;;;;;;1.50;1.40;;;26.50;58.30;;;;;;4932216;29;20483;-68
2022/07/10 07:38:52;;;;;;;1.87;1.50;;;26.50;58.20;;;;;;4929072;29;20458;-68
2022/07/10 07:41:20;;;;;;;1.50;1.30;;;26.60;58.20;;;;;;4931053;29;20522;-68
2022/07/10 07:43:48;;;;;;;1.87;1.67;;;26.60;58.20;;;;;;4931034;29;20550;-69
2022/07/10 07:46:18;;;;;;;1.40;1.30;;;26.60;58.10;;;;;;4927692;29;20459;-71
2022/07/10 07:48:46;;;;;;;1.50;1.40;;;26.60;58.20;;;;;;4932645;29;20451;-69
2022/07/10 07:51:16;;;;;;;1.43;1.30;;;26.60;58.20;;;;;;4928502;29;20930;-69
2022/07/10 07:53:44;;;;;;;1.73;1.50;;;26.60;58.10;;;;;;4932672;29;20922;-69
2022/07/10 07:56:13;;;;;;;1.40;1.20;;;26.60;58.10;;;;;;4929361;29;20468;-74
2022/07/10 07:58:41;;;;;;;1.70;1.20;;;26.60;58.10;;;;;;4932110;29;20467;-69
2022/07/10 08:01:10;;;;;;;1.43;1.27;;;26.60;58.10;;;;;;4925021;29;20550;-69
2022/07/10 08:03:38;;;;;;;1.43;1.33;;;26.60;58.10;;;;;;4930437;29;20451;-70
2022/07/10 08:06:28;;;;;;;1.57;1.47;;;26.60;58.10;;;;;;4926688;29;20565;-69
2022/07/10 08:08:56;;;;;;;1.63;1.50;;;26.60;58.10;;;;;;4928697;29;20447;-72
2022/07/10 08:11:24;;;;;;;1.97;1.77;;;26.60;58.10;;;;;;4925307;29;20475;-70
2022/07/10 08:13:52;;;;;;;1.83;1.73;;;26.60;58.10;;;;;;4931024;29;20488;-74
2022/07/10 08:16:20;;;;;;;5.00;1.90;;;26.70;57.90;;;;;;4926466;29;20933;-73
2022/07/10 08:18:50;;;;;;;5.90;1.90;;;26.70;58.50;;;;;;4930713;29;20465;-72
2022/07/10 08:21:19;;;;;;;2.63;2.20;;;26.70;58.70;;;;;;4924394;29;20484;-70
2022/07/10 08:23:49;;;;;;;2.63;1.83;;;26.70;58.70;;;;;;4932077;29;20491;-71
2022/07/10 08:26:17;;;;;;;4.30;2.80;;;26.70;58.50;;;;;;4931966;29;20919;-70
2022/07/10 08:28:45;;;;;;;4.30;2.40;;;26.70;58.40;;;;;;4933632;29;20568;-71
2022/07/10 08:31:14;;;;;;;6.13;3.40;;;26.70;58.30;;;;;;4932278;29;20503;-74
2022/07/10 08:33:43;;;;;;;5.30;3.10;;;26.70;58.30;;;;;;4927003;29;20481;-70
2022/07/10 08:36:12;;;;;;;4.30;2.40;;;26.70;58.10;;;;;;4926312;29;20468;-74
2022/07/10 08:39:02;;;;;;;5.23;2.23;;;26.70;57.60;;;;;;4929798;29;20542;-71
2022/07/10 08:41:32;;;;;;;3.17;2.33;;;26.70;57.00;;;;;;4935676;29;20531;-71
2022/07/10 08:44:00;;;;;;;3.67;2.03;;;26.70;56.80;;;;;;4939765;29;20478;-71
2022/07/10 08:46:30;;;;;;;3.83;2.10;;;26.70;56.30;;;;;;4938417;29;20983;-71
2022/07/10 08:49:01;;;;;;;2.70;2.50;;;26.60;56.30;;;;;;4932805;29;20442;-71
2022/07/10 08:51:38;;;;;;;5.50;2.37;;;26.60;56.00;;;;;;4929467;29;20511;-70
2022/07/10 08:54:09;;;;;;;3.17;1.87;;;26.60;55.90;;;;;;4925675;29;20519;-71
2022/07/10 08:56:38;;;;;;;2.00;1.80;;;26.60;55.90;;;;;;4931425;29;20452;-71
2022/07/10 08:59:08;;;;;;;3.07;1.70;;;26.70;55.90;;;;;;4934486;29;20454;-72
2022/07/10 09:01:36;;;;;;;3.30;2.03;;;26.70;55.90;;;;;;4933471;29;20538;-70
2022/07/10 09:04:05;;;;;;;2.50;1.97;;;26.70;56.00;;;;;;4936244;29;20838;-71
2022/07/10 09:06:33;;;;;;;3.43;1.90;;;26.80;56.00;;;;;;4933599;29;20459;-71
2022/07/10 09:09:04;;;;;;;2.23;2.03;;;26.80;56.00;;;;;;4933499;29;20454;-70
2022/07/10 09:11:34;;;;;;;2.70;2.10;;;26.80;56.10;;;;;;4937900;29;20451;-71
2022/07/10 09:14:04;;;;;;;5.33;1.93;;;26.80;56.10;;;;;;4934992;29;20481;-71
2022/07/10 09:16:34;;;;;;;3.13;1.83;;;26.80;56.00;;;;;;4934724;29;20475;-71
2022/07/10 09:19:20;;;;;;;2.40;1.83;;;26.80;56.10;;;;;;4937431;29;20920;-71
2022/07/10 09:21:50;;;;;;;4.87;1.93;;;26.80;56.20;;;;;;4937233;29;20484;-70
2022/07/10 09:24:20;;;;;;;2.30;2.10;;;26.80;56.30;;;;;;4923493;29;20834;-71
2022/07/10 09:27:03;;;;;;;3.00;2.10;;;26.80;56.30;;;;;;4932340;29;20453;-71
2022/07/10 09:29:32;;;;;;;3.10;1.73;;;26.80;56.40;;;;;;4928145;29;20525;-71
2022/07/10 09:32:02;;;;;;;3.10;2.10;;;26.80;56.40;;;;;;4931834;29;20499;-71
2022/07/10 09:34:41;;;;;;;2.47;1.60;;;26.80;56.50;;;;;;4928880;29;20459;-71
2022/07/10 09:37:25;;;;;;;3.33;1.90;;;26.80;56.40;;;;;;4929330;29;20919;-71
2022/07/10 09:40:00;;;;;;;2.30;2.00;;;26.80;56.50;;;;;;4930369;29;20468;-71
2022/07/10 09:42:32;;;;;;;2.30;2.10;;;26.80;56.40;;;;;;4930649;29;21047;-71
2022/07/10 09:45:19;;;;;;;2.03;1.80;;;26.80;56.50;;;;;;4933914;29;20455;-71
2022/07/10 09:47:57;;;;;;;2.10;1.90;;;26.80;56.50;;;;;;4932991;29;20455;-71
2022/07/10 09:50:27;;;;;;;1.83;1.57;;;26.80;56.40;;;;;;4933472;29;20471;-71
2022/07/10 09:52:57;;;;;;;1.70;1.60;;;26.80;56.40;;;;;;4935192;29;20467;-71
2022/07/10 09:55:29;;;;;;;1.90;1.53;;;26.80;56.50;;;;;;4931754;29;20451;-71
2022/07/10 09:58:00;;;;;;;1.83;1.73;;;26.80;56.50;;;;;;4931939;29;20447;-71
2022/07/10 10:00:31;;;;;;;2.30;1.60;;;26.80;56.50;;;;;;4933104;29;20517;-70
2022/07/10 10:03:01;;;;;;;2.37;1.73;;;26.80;56.50;;;;;;4936545;29;20482;-70
2022/07/10 10:05:37;;;;;;;2.63;1.90;;;26.80;56.50;;;;;;4933400;29;20467;-71
2022/07/10 10:08:13;;;;;;;11.43;3.73;;;26.80;56.50;;;;;;4934478;29;20946;-72
2022/07/10 10:10:47;;;;;;;5.20;3.07;;;26.80;59.00;;;;;;4936807;29;20463;-71
2022/07/10 10:13:19;;;;;;;5.10;2.87;;;26.80;58.80;;;;;;4936756;29;20444;-70
2022/07/10 10:15:49;;;;;;;5.83;2.80;;;26.90;58.70;;;;;;4930562;29;20455;-71
2022/07/10 10:18:19;;;;;;;9.30;3.90;;;26.90;58.20;;;;;;4936686;29;20599;-70
2022/07/10 10:20:48;;;;;;;6.13;3.00;;;26.90;58.50;;;;;;4935918;29;20448;-70
2022/07/10 10:23:20;;;;;;;8.17;3.50;;;26.90;59.60;;;;;;4931559;29;20511;-71
2022/07/10 10:25:49;;;;;;;5.50;3.20;;;26.90;59.40;;;;;;4934174;29;20450;-71
2022/07/10 10:28:23;;;;;;;6.53;2.87;;;26.90;59.10;;;;;;4931541;29;20507;-70
2022/07/10 10:30:54;;;;;;;6.13;3.10;;;27.00;59.00;;;;;;4931657;29;20463;-71
2022/07/10 10:33:45;;;;;;;6.00;3.10;;;26.90;59.00;;;;;;4931445;29;20468;-70
2022/07/10 10:36:17;;;;;;;4.07;2.33;;;27.00;59.00;;;;;;4932441;29;20537;-71
2022/07/10 10:39:02;;;;;;;5.97;2.90;;;27.00;58.90;;;;;;4931416;29;20447;-70
2022/07/10 10:41:37;;;;;;;5.40;2.63;;;27.00;58.80;;;;;;4930748;29;20480;-71
2022/07/10 10:44:28;;;;;;;4.30;2.33;;;27.00;58.50;;;;;;4929877;29;20483;-70
2022/07/10 10:47:07;;;;;;;8.00;3.20;;;27.00;58.50;;;;;;4930065;29;20951;-71
2022/07/10 10:50:01;;;;;;;5.80;2.60;;;27.10;58.40;;;;;;4929352;29;20924;-71
2022/07/10 10:52:30;;;;;;;4.27;2.83;;;27.10;58.20;;;;;;4933851;29;21016;-71
2022/07/10 10:55:10;;;;;;;5.90;2.60;;;27.10;58.10;;;;;;4927039;29;20534;-72
2022/07/10 10:57:50;;;;;;;4.17;2.60;;;27.10;58.00;;;;;;4935738;29;20435;-71
2022/07/10 11:00:40;;;;;;;4.90;3.30;;;27.10;57.90;;;;;;4931171;29;20460;-71
2022/07/10 11:03:22;;;;;;;3.40;2.20;;;27.10;57.80;;;;;;4928287;29;20550;-71
2022/07/10 11:05:51;;;;;;;3.90;2.63;;;27.20;57.80;;;;;;4934864;29;20439;-71
2022/07/10 11:08:40;;;;;;;2.50;1.83;;;27.20;57.80;;;;;;4936074;29;20492;-72
2022/07/10 11:11:40;;;;;;;4.57;3.47;;;27.20;57.70;;;;;;4935890;29;20775;-71
2022/07/10 11:14:14;;;;;;;4.00;2.60;;;27.20;57.60;;;;;;4929154;29;20596;-70
2022/07/10 11:16:52;;;;;;;3.03;2.30;;;27.20;57.50;;;;;;4918949;29;20467;-70
2022/07/10 11:19:23;;;;;;;5.63;2.40;;;27.20;57.50;;;;;;4936305;29;20901;-71
2022/07/10 11:22:00;;;;;;;4.53;2.10;;;27.20;57.50;;;;;;4935057;29;20441;-70
2022/07/10 11:24:56;;;;;;;2.60;2.00;;;27.20;57.50;;;;;;4932842;29;20965;-71
2022/07/10 11:27:37;;;;;;;2.63;2.20;;;27.30;57.40;;;;;;4935714;29;20459;-70
2022/07/10 11:30:06;;;;;;;4.10;2.17;;;27.30;57.40;;;;;;4935549;29;20463;-71
2022/07/10 11:32:36;;;;;;;4.33;1.97;;;27.30;57.30;;;;;;4933829;29;20515;-71
2022/07/10 11:35:08;;;;;;;2.67;2.10;;;27.30;57.30;;;;;;4935388;29;20462;-70
2022/07/10 11:37:37;;;;;;;3.83;1.97;;;27.30;57.40;;;;;;4936050;29;20506;-71
2022/07/10 11:40:13;;;;;;;2.20;2.00;;;27.30;57.40;;;;;;4934666;29;20519;-71
2022/07/10 11:42:51;;;;;;;4.60;2.87;;;27.30;57.40;;;;;;4935678;29;20467;-71
2022/07/10 11:45:25;;;;;;;3.83;2.23;;;27.30;57.40;;;;;;4918822;29;20517;-70
2022/07/10 11:47:56;;;;;;;2.90;2.60;;;27.30;57.40;;;;;;4916603;29;20938;-70
2022/07/10 11:50:24;;;;;;;3.47;2.00;;;27.30;57.40;;;;;;4931800;29;20458;-70
2022/07/10 11:52:53;;;;;;;1.73;1.47;;;27.30;57.40;;;;;;4935879;29;20474;-70
2022/07/10 11:55:23;;;;;;;2.97;2.07;;;27.30;57.40;;;;;;4933806;29;20466;-70
2022/07/10 11:57:52;;;;;;;3.40;2.00;;;27.40;57.40;;;;;;4918278;29;20953;-71
2022/07/10 12:00:29;;;;;;;2.40;2.20;;;27.40;57.40;;;;;;4916903;29;20872;-71
2022/07/10 12:03:17;;;;;;;4.30;2.40;;;27.40;57.30;;;;;;4934231;29;20595;-74
2022/07/10 12:05:46;;;;;;;2.30;1.97;;;27.50;57.30;;;;;;4921760;29;20518;-71
2022/07/10 12:08:14;;;;;;;2.77;2.40;;;27.60;57.10;;;;;;4935747;29;20535;-72
2022/07/10 12:10:43;;;;;;;4.77;2.00;;;27.70;57.00;;;;;;4934563;29;20458;-70
2022/07/10 12:13:13;;;;;;;2.10;1.90;;;27.70;56.80;;;;;;4932298;29;20473;-72
2022/07/10 12:15:43;;;;;;;3.50;2.03;;;27.70;56.80;;;;;;4934424;29;20476;-71
2022/07/10 12:18:18;;;;;;;2.10;1.90;;;27.80;56.80;;;;;;4933729;29;20480;-74
2022/07/10 12:20:48;;;;;;;2.20;2.00;;;27.80;56.70;;;;;;4934914;29;20474;-71
2022/07/10 12:23:16;;;;;;;2.20;2.00;;;27.90;56.60;;;;;;4936462;29;20497;-71
2022/07/10 12:25:45;;;;;;;2.43;1.87;;;27.90;56.50;;;;;;4938738;29;20451;-71
2022/07/10 12:28:14;;;;;;;2.30;2.10;;;27.90;56.60;;;;;;4939063;29;20509;-71
2022/07/10 12:30:44;;;;;;;2.10;1.90;;;28.00;56.40;;;;;;4938707;29;20862;-71
2022/07/10 12:33:17;;;;;;;3.90;1.80;;;28.20;56.00;;;;;;4937305;29;20434;-71
2022/07/10 12:35:54;;;;;;;2.10;1.93;;;28.20;55.90;;;;;;4925748;29;20470;-71
2022/07/10 12:38:25;;;;;;;1.73;1.63;;;28.40;55.40;;;;;;4938582;29;20452;-71
2022/07/10 12:41:07;;;;;;;2.47;1.90;;;28.50;55.10;;;;;;4936240;29;20865;-71
2022/07/10 12:43:36;;;;;;;2.93;1.70;;;28.80;54.50;;;;;;4919648;29;20470;-70
2022/07/10 12:46:16;;;;;;;2.97;1.70;;;28.90;54.20;;;;;;4929145;29;20505;-75
2022/07/10 12:49:01;;;;;;;2.17;1.80;;;29.20;53.70;;;;;;4932850;29;20444;-74
2022/07/10 12:51:32;;;;;;;2.20;1.63;;;29.20;53.50;;;;;;4937118;29;20569;-71
2022/07/10 12:54:31;;;;;;;2.37;1.53;;;29.20;53.30;;;;;;4919988;29;20470;-71
2022/07/10 12:57:00;;;;;;;2.37;1.80;;;29.30;53.20;;;;;;4933446;29;20524;-71
2022/07/10 12:59:29;;;;;;;2.63;2.07;;;29.20;53.10;;;;;;4936432;29;20485;-71
2022/07/10 13:01:58;;;;;;;2.97;1.93;;;29.00;53.20;;;;;;4926149;29;20463;-70
2022/07/10 13:04:27;;;;;;;1.93;1.73;;;28.90;53.20;;;;;;4918924;29;21002;-71
2022/07/10 13:07:13;;;;;;;1.73;1.60;;;28.90;53.40;;;;;;4919274;29;20431;-70
2022/07/10 13:09:43;;;;;;;2.07;1.70;;;29.00;53.20;;;;;;4918846;29;20942;-71
2022/07/10 13:12:11;;;;;;;1.87;1.77;;;29.10;52.90;;;;;;4921820;29;20505;-71
2022/07/10 13:14:40;;;;;;;2.07;1.50;;;29.10;52.90;;;;;;4935891;29;20504;-71